Time;durP1;ratioP1;P1;durP2;ratioP2;P2;SDS_P1;SDS_P2;PMS_P1;PMS_P2;Temp;Humidity;BMP_temperature;BMP_pressure;BME280_temperature;BME280_humidity;BME280_pressure;Samples;Min_cycle;Max_cycle;Signal;HPM_P1;HPM_P2
2022/06/18 00:00:18;;;;;;;4.90;1.85;;;;;;;17.22;54.58;97876.53;5067626;28;20041;-65
2022/06/18 00:02:45;;;;;;;3.60;1.75;;;;;;;17.20;54.48;97880.63;5066186;28;20044;-67
2022/06/18 00:05:15;;;;;;;3.20;1.80;;;;;;;17.15;54.76;97882.28;5066858;28;20591;-66
2022/06/18 00:07:48;;;;;;;3.22;1.50;;;;;;;17.08;54.61;97876.31;5066509;28;20049;-66
2022/06/18 00:10:20;;;;;;;3.83;1.48;;;;;;;17.15;54.05;97876.00;5067959;28;20060;-66
2022/06/18 00:15:35;;;;;;;2.65;1.45;;;;;;;17.09;54.25;97882.59;5067709;28;20059;-66
2022/06/18 00:18:05;;;;;;;3.88;1.63;;;;;;;17.08;54.28;97878.22;5065534;28;20033;-67
2022/06/18 00:20:34;;;;;;;2.67;1.50;;;;;;;17.17;53.69;97884.75;5068158;28;20274;-66
2022/06/18 00:23:02;;;;;;;2.63;1.60;;;;;;;17.08;54.09;97878.22;5062803;28;20066;-67
2022/06/18 00:25:33;;;;;;;4.03;1.90;;;;;;;17.14;53.57;97875.19;5067022;28;20044;-68
2022/06/18 00:28:01;;;;;;;3.80;1.75;;;;;;;17.24;53.28;97881.69;5067529;28;20079;-67
2022/06/18 00:30:29;;;;;;;4.82;1.60;;;;;;;17.29;52.71;97878.94;5066610;28;20044;-67
2022/06/18 00:32:57;;;;;;;2.80;1.40;;;;;;;17.38;52.28;97877.22;5066201;28;20135;-66
2022/06/18 00:35:24;;;;;;;3.20;1.45;;;;;;;17.39;52.25;97875.28;5066583;28;20033;-67
2022/06/18 00:37:56;;;;;;;4.65;1.63;;;;;;;17.37;52.24;97874.78;5066944;28;20051;-67
2022/06/18 00:40:28;;;;;;;2.45;1.40;;;;;;;17.35;52.41;97871.50;5047947;28;20426;-67
2022/06/18 00:42:57;;;;;;;;;;;;;;;17.35;52.32;97868.75;5067346;28;20102;-66
2022/06/18 00:45:26;;;;;;;1.98;1.30;;;;;;;17.37;52.14;97866.56;5067123;28;20388;-67
2022/06/18 00:47:52;;;;;;;3.88;1.40;;;;;;;17.33;52.48;97871.81;5066285;28;20044;-66
2022/06/18 00:50:30;;;;;;;4.28;1.50;;;;;;;17.22;53.00;97871.06;5065482;28;20125;-67
2022/06/18 00:53:05;;;;;;;2.90;1.77;;;;;;;17.15;53.41;97870.53;5065127;28;20052;-67
2022/06/18 00:55:52;;;;;;;2.72;1.70;;;;;;;17.12;53.62;97866.47;5067009;28;20086;-66
2022/06/18 00:58:26;;;;;;;3.55;1.65;;;;;;;17.13;53.27;97872.72;5066455;28;20037;-66
2022/06/18 01:00:55;;;;;;;2.67;1.60;;;;;;;17.14;53.48;97866.19;5066626;28;20136;-66
2022/06/18 01:03:31;;;;;;;8.55;3.17;;;;;;;17.14;53.56;97857.97;5066977;28;20041;-66
2022/06/18 01:06:14;;;;;;;3.40;1.60;;;;;;;17.11;53.84;97864.84;5065263;28;20474;-66
2022/06/18 01:08:42;;;;;;;3.35;1.58;;;;;;;17.13;53.88;97854.41;5064980;28;20052;-67
2022/06/18 01:11:19;;;;;;;3.50;1.70;;;;;;;17.05;54.12;97857.75;5067055;28;20119;-67
2022/06/18 01:13:46;;;;;;;2.63;1.73;;;;;;;16.94;54.64;97854.22;5065515;28;20058;-67
2022/06/18 01:16:13;;;;;;;3.67;1.75;;;;;;;16.86;54.80;97852.91;5064718;28;20136;-68
2022/06/18 01:18:43;;;;;;;5.93;1.90;;;;;;;16.82;55.15;97853.72;5064696;28;20044;-67
2022/06/18 01:21:44;;;;;;;4.47;1.70;;;;;;;16.78;55.16;97854.28;5064808;28;20052;-66
2022/06/18 01:24:21;;;;;;;3.78;1.85;;;;;;;16.77;55.22;97847.19;5064677;28;20036;-67
2022/06/18 01:26:52;;;;;;;5.20;1.73;;;;;;;16.74;55.14;97845.00;5064840;28;20100;-67
2022/06/18 01:29:22;;;;;;;4.88;1.80;;;;;;;16.78;55.00;97835.13;5063636;28;20041;-68
2022/06/18 01:31:50;;;;;;;3.05;1.63;;;;;;;16.82;54.62;97838.16;5072373;28;20135;-66
2022/06/18 01:34:20;;;;;;;2.88;1.70;;;;;;;16.83;54.96;97841.69;5080731;28;20578;-67
2022/06/18 01:36:51;;;;;;;4.28;1.90;;;;;;;16.80;55.04;97832.13;5064181;28;20455;-67
2022/06/18 01:39:24;;;;;;;5.90;1.88;;;;;;;16.68;55.60;97826.16;5065071;28;20029;-66
2022/06/18 01:42:02;;;;;;;3.40;1.60;;;;;;;16.61;55.93;97830.03;5064309;28;20519;-67
2022/06/18 01:44:40;;;;;;;3.55;2.33;;;;;;;16.51;56.21;97832.81;5065230;28;20040;-67
2022/06/18 01:47:18;;;;;;;2.55;1.50;;;;;;;16.44;56.37;97824.91;5062182;28;20045;-67
2022/06/18 01:49:53;;;;;;;3.25;1.80;;;;;;;16.44;56.28;97824.91;5065178;28;20039;-68
2022/06/18 01:52:26;;;;;;;5.18;2.00;;;;;;;16.44;56.54;97826.84;5064360;28;20202;-69
2022/06/18 01:55:03;;;;;;;4.47;1.80;;;;;;;16.41;56.47;97824.66;5065569;28;20384;-69
2022/06/18 01:57:35;;;;;;;3.20;1.87;;;;;;;16.39;56.44;97816.72;5063802;28;20563;-66
2022/06/18 02:00:12;;;;;;;3.80;1.92;;;;;;;16.37;56.72;97816.22;5064639;28;20051;-66
2022/06/18 02:02:43;;;;;;;4.07;1.70;;;;;;;16.34;56.66;97814.84;5066496;28;20098;-65
2022/06/18 02:05:12;;;;;;;3.42;1.90;;;;;;;16.29;56.85;97811.31;5064159;28;20045;-66
2022/06/18 02:07:43;;;;;;;4.45;1.77;;;;;;;16.23;57.21;97805.88;5064767;28;20051;-65
2022/06/18 02:10:16;;;;;;;5.93;1.88;;;;;;;16.17;57.58;97800.69;5063264;28;20041;-67
2022/06/18 02:12:44;;;;;;;3.28;1.60;;;;;;;16.10;57.97;97798.25;5065248;28;20041;-66
2022/06/18 02:15:21;;;;;;;2.95;1.75;;;;;;;16.07;57.94;97796.88;5064562;28;20135;-68
2022/06/18 02:17:48;;;;;;;2.80;1.67;;;;;;;16.04;58.14;97793.91;5065886;28;20045;-69
2022/06/18 02:20:21;;;;;;;3.80;1.70;;;;;;;16.06;58.24;97787.06;5065648;28;20120;-68
2022/06/18 02:22:51;;;;;;;3.20;1.80;;;;;;;16.07;58.14;97790.63;5065525;28;20495;-67
2022/06/18 02:25:20;;;;;;;3.03;1.70;;;;;;;16.10;58.16;97788.16;5066377;28;20047;-68
2022/06/18 02:27:48;;;;;;;4.10;2.10;;;;;;;16.01;58.33;97789.00;5067393;28;20048;-68
2022/06/18 02:30:24;;;;;;;6.85;2.00;;;;;;;16.04;58.38;97789.28;5069378;28;20086;-69
2022/06/18 02:32:59;;;;;;;3.30;1.92;;;;;;;15.98;58.53;97787.63;5068574;28;20094;-69
2022/06/18 02:35:30;;;;;;;3.70;1.70;;;;;;;15.95;58.61;97789.00;5069339;28;20051;-66
2022/06/18 02:37:56;;;;;;;3.47;1.77;;;;;;;15.92;58.86;97784.06;5069264;28;20037;-66
2022/06/18 02:40:26;;;;;;;5.72;2.00;;;;;;;15.94;58.93;97792.84;5069161;28;20454;-67
2022/06/18 02:42:56;;;;;;;4.60;2.00;;;;;;;15.95;58.85;97786.28;5067863;28;20052;-66
2022/06/18 02:45:25;;;;;;;6.93;2.20;;;;;;;15.94;58.84;97789.25;5067934;28;20534;-66
2022/06/18 02:47:55;;;;;;;6.60;1.80;;;;;;;15.97;58.78;97792.28;5067099;28;20048;-67
2022/06/18 02:50:25;;;;;;;7.20;2.50;;;;;;;15.97;58.79;97789.56;5067149;28;20063;-67
2022/06/18 02:52:55;;;;;;;3.30;2.03;;;;;;;15.95;58.95;97786.28;5068035;28;20531;-66
2022/06/18 02:55:31;;;;;;;4.00;2.03;;;;;;;15.90;59.45;97789.00;5067165;28;20143;-66
2022/06/18 02:58:12;;;;;;;3.42;2.10;;;;;;;15.82;59.73;97792.28;5069724;28;20105;-66
2022/06/18 03:00:44;;;;;;;4.93;2.45;;;;;;;15.77;59.99;97784.13;5068391;28;20040;-66
2022/06/18 03:03:13;;;;;;;2.88;1.70;;;;;;;15.69;60.40;97780.84;5069040;28;20044;-66
2022/06/18 03:05:41;;;;;;;4.18;2.15;;;;;;;15.66;60.23;97786.84;5067264;28;20052;-65
2022/06/18 03:08:08;;;;;;;4.45;2.45;;;;;;;15.62;60.47;97780.31;5068255;28;20716;-65
2022/06/18 03:13:20;;;;;;;5.25;2.13;;;;;;;15.61;60.55;97778.66;5076056;28;20067;-67
2022/06/18 03:15:52;;;;;;;3.63;2.10;;;;;;;15.59;60.66;97778.94;5073436;28;20051;-68
2022/06/18 03:18:20;;;;;;;4.35;2.15;;;;;;;15.58;60.85;97784.66;5066043;28;20052;-67
2022/06/18 03:21:15;;;;;;;4.35;2.20;;;;;;;15.56;60.82;97778.69;5065785;28;20060;-68
2022/06/18 03:23:45;;;;;;;4.45;2.00;;;;;;;15.53;60.77;97780.06;5063854;28;20044;-69
2022/06/18 03:26:16;;;;;;;4.88;2.08;;;;;;;15.62;60.35;97777.56;5064864;28;20048;-68
2022/06/18 03:28:48;;;;;;;4.07;2.00;;;;;;;15.69;60.38;97777.28;5054114;28;20054;-67
2022/06/18 03:31:15;;;;;;;4.13;2.03;;;;;;;15.74;60.07;97782.75;5052625;28;20044;-67
2022/06/18 03:33:43;;;;;;;3.80;2.08;;;;;;;15.78;60.08;97796.66;5065239;28;20052;-69
2022/06/18 03:36:11;;;;;;;3.85;1.90;;;;;;;15.77;60.08;97793.09;5065651;28;20049;-65
2022/06/18 03:38:39;;;;;;;3.67;2.10;;;;;;;15.68;60.49;97795.59;5064398;28;20059;-65
2022/06/18 03:41:08;;;;;;;4.43;2.25;;;;;;;15.68;60.56;97790.13;5064411;28;20564;-65
2022/06/18 03:43:35;;;;;;;4.18;2.58;;;;;;;15.70;60.37;97798.06;5066782;28;20055;-66
2022/06/18 03:46:07;;;;;;;4.38;2.05;;;;;;;15.75;60.19;97800.78;5067811;28;20419;-65
2022/06/18 03:48:48;;;;;;;4.80;2.00;;;;;;;15.77;60.24;97804.03;5046176;28;20171;-65
2022/06/18 03:51:18;;;;;;;3.88;2.50;;;;;;;15.84;60.15;97803.75;5046958;28;20136;-66
2022/06/18 03:53:45;;;;;;;3.75;1.80;;;;;;;15.88;59.98;97806.75;5064549;28;20431;-66
2022/06/18 03:56:15;;;;;;;5.15;2.17;;;;;;;15.95;59.83;97810.84;5066531;28;20131;-67
2022/06/18 03:58:44;;;;;;;5.03;2.28;;;;;;;15.96;59.98;97814.41;5065938;28;20052;-65
2022/06/18 04:01:16;;;;;;;6.85;2.58;;;;;;;15.96;59.79;97815.22;5066295;28;20080;-65
2022/06/18 04:03:44;;;;;;;4.63;2.38;;;;;;;15.96;60.34;97808.97;5065893;28;20037;-65
2022/06/18 04:06:18;;;;;;;4.78;2.28;;;;;;;16.04;59.93;97813.03;5066574;28;20048;-65
2022/06/18 04:08:47;;;;;;;5.22;2.50;;;;;;;16.11;59.64;97813.56;5066314;28;20044;-65
2022/06/18 04:11:22;;;;;;;4.45;2.42;;;;;;;16.21;59.46;97821.72;5065565;28;20505;-65
2022/06/18 04:13:49;;;;;;;3.67;1.92;;;;;;;16.25;59.45;97817.34;5066737;28;20045;-65
2022/06/18 04:16:35;;;;;;;3.15;2.08;;;;;;;16.35;59.71;97812.91;5066834;28;20454;-65
2022/06/18 04:19:11;;;;;;;3.55;2.03;;;;;;;16.42;59.30;97812.63;5066075;28;20044;-66
2022/06/18 04:21:38;;;;;;;6.60;2.55;;;;;;;16.46;59.58;97811.78;5066230;28;20511;-66
2022/06/18 04:24:05;;;;;;;3.25;1.92;;;;;;;16.49;59.91;97813.16;5066378;28;20037;-65
2022/06/18 04:26:32;;;;;;;4.63;1.92;;;;;;;16.52;59.44;97812.59;5065532;28;20131;-66
2022/06/18 04:29:00;;;;;;;4.93;2.03;;;;;;;16.58;59.44;97813.41;5065549;28;20507;-65
2022/06/18 04:31:28;;;;;;;4.07;1.95;;;;;;;16.59;59.34;97815.81;5049855;28;20048;-65
2022/06/18 04:33:56;;;;;;;5.10;2.45;;;;;;;16.71;58.83;97817.41;5064924;28;20036;-66
2022/06/18 04:36:39;;;;;;;5.53;2.20;;;;;;;16.71;58.65;97820.16;5065519;28;20052;-65
2022/06/18 04:39:13;;;;;;;3.35;2.00;;;;;;;16.68;58.81;97812.50;5064801;28;20397;-67
2022/06/18 04:41:53;;;;;;;5.20;2.45;;;;;;;16.72;59.18;97814.41;5067417;28;20231;-66
2022/06/18 04:44:24;;;;;;;3.28;2.00;;;;;;;16.78;58.58;97813.25;5065911;28;20044;-65
2022/06/18 04:47:11;;;;;;;3.78;1.92;;;;;;;16.94;58.36;97812.34;5065874;28;20059;-66
2022/06/18 04:49:37;;;;;;;4.18;2.03;;;;;;;17.00;58.45;97812.03;5064095;28;20131;-65
2022/06/18 04:52:06;;;;;;;5.28;2.47;;;;;;;17.09;58.28;97816.94;5062315;28;20068;-66
2022/06/18 04:54:39;;;;;;;5.95;2.38;;;;;;;17.10;58.27;97811.19;5062973;28;20048;-66
2022/06/18 04:57:06;;;;;;;4.35;2.20;;;;;;;17.06;58.44;97810.13;5062689;28;20047;-65
2022/06/18 04:59:38;;;;;;;4.25;2.17;;;;;;;17.12;58.34;97816.38;5063471;28;20036;-65
2022/06/18 05:02:07;;;;;;;6.72;2.13;;;;;;;17.18;58.60;97814.44;5062354;28;20068;-65
2022/06/18 05:04:54;;;;;;;3.55;2.00;;;;;;;17.25;58.44;97810.25;5065293;28;20075;-66
2022/06/18 05:07:37;;;;;;;4.88;2.03;;;;;;;17.40;57.83;97814.00;5059847;28;20040;-65
2022/06/18 05:10:22;;;;;;;3.53;2.40;;;;;;;17.52;57.57;97806.25;5063998;28;20111;-65
2022/06/18 05:13:18;;;;;;;6.07;2.67;;;;;;;17.61;57.21;97803.69;5064570;28;20044;-65
2022/06/18 05:15:49;;;;;;;4.53;2.70;;;;;;;17.71;57.36;97800.03;5065067;28;20148;-66
2022/06/18 05:18:18;;;;;;;3.60;1.88;;;;;;;17.83;57.47;97807.06;5064593;28;20423;-65
2022/06/18 05:20:51;;;;;;;4.38;2.50;;;;;;;17.93;57.37;97805.03;5065305;28;20415;-65
2022/06/18 05:23:23;;;;;;;4.43;2.55;;;;;;;18.04;57.18;97804.91;5065025;28;20040;-66
2022/06/18 05:25:54;;;;;;;3.95;2.05;;;;;;;18.20;56.79;97797.34;5065082;28;20086;-65
2022/06/18 05:28:21;;;;;;;5.47;2.00;;;;;;;18.31;56.97;97800.78;5065635;28;20099;-65
2022/06/18 05:30:48;;;;;;;4.43;2.33;;;;;;;18.45;56.68;97793.50;5064423;28;20083;-66
2022/06/18 05:33:14;;;;;;;4.80;2.42;;;;;;;18.57;56.25;97792.25;5065187;28;20503;-66
2022/06/18 05:35:45;;;;;;;4.40;2.00;;;;;;;18.71;56.18;97784.13;5063699;28;20059;-65
2022/06/18 05:38:19;;;;;;;3.70;2.00;;;;;;;18.83;56.08;97786.41;5065243;28;20139;-65
2022/06/18 05:40:46;;;;;;;4.72;2.10;;;;;;;18.98;55.75;97786.19;5065242;28;20041;-66
2022/06/18 05:43:13;;;;;;;4.15;2.20;;;;;;;19.12;56.07;97790.97;5064618;28;20414;-65
2022/06/18 05:45:41;;;;;;;3.80;2.20;;;;;;;19.22;55.57;97785.34;5063132;28;20674;-66
2022/06/18 05:48:10;;;;;;;4.82;2.10;;;;;;;19.35;55.73;97785.69;5061530;28;20474;-65
2022/06/18 05:50:38;;;;;;;6.10;1.92;;;;;;;19.52;55.44;97790.59;5063019;28;20531;-65
2022/06/18 05:53:04;;;;;;;4.32;1.70;;;;;;;19.73;54.77;97788.34;5061727;28;20048;-66
2022/06/18 05:55:57;;;;;;;4.53;2.15;;;;;;;19.93;54.29;97786.31;5076599;28;20056;-65
2022/06/18 05:58:57;;;;;;;3.67;2.03;;;;;;;20.13;53.74;97787.06;5062568;28;20194;-65
2022/06/18 06:01:27;;;;;;;6.22;2.38;;;;;;;20.30;53.90;97793.91;5066951;28;20045;-66
2022/06/18 06:03:58;;;;;;;4.55;1.70;;;;;;;20.44;53.63;97789.19;5068716;28;20407;-66
2022/06/18 06:06:25;;;;;;;3.38;1.98;;;;;;;20.59;53.43;97785.31;5068643;28;20131;-65
2022/06/18 06:08:53;;;;;;;4.53;1.83;;;;;;;20.77;52.52;97783.56;5067828;28;20376;-66
2022/06/18 06:11:32;;;;;;;3.75;1.90;;;;;;;20.93;52.07;97788.72;5069217;28;20040;-65
2022/06/18 06:14:04;;;;;;;3.08;1.83;;;;;;;21.10;51.87;97788.06;5068274;28;20051;-65
2022/06/18 06:16:31;;;;;;;5.00;1.98;;;;;;;21.28;51.24;97785.44;5069388;28;20049;-66
2022/06/18 06:19:02;;;;;;;3.50;1.80;;;;;;;21.49;50.25;97780.22;5068587;28;20048;-65
2022/06/18 06:21:29;;;;;;;3.55;2.08;;;;;;;21.65;50.41;97786.19;5069094;28;20450;-66
2022/06/18 06:23:55;;;;;;;3.50;2.10;;;;;;;21.84;50.27;97782.41;5069842;28;20040;-66
2022/06/18 06:26:26;;;;;;;3.80;1.70;;;;;;;21.96;49.51;97784.56;5069202;28;20045;-66
2022/06/18 06:28:52;;;;;;;3.70;1.70;;;;;;;22.09;48.53;97777.34;5069204;28;20458;-65
2022/06/18 06:31:19;;;;;;;6.57;1.90;;;;;;;22.24;48.43;97772.50;5068809;28;20411;-65
2022/06/18 06:33:46;;;;;;;5.57;1.73;;;;;;;22.37;47.71;97768.03;5069219;28;20044;-65
2022/06/18 06:36:12;;;;;;;2.60;1.55;;;;;;;22.51;47.55;97771.44;5068822;28;20500;-65
2022/06/18 06:38:40;;;;;;;5.85;1.70;;;;;;;22.63;46.78;97772.81;5069885;28;20040;-65
2022/06/18 06:41:14;;;;;;;4.45;1.58;;;;;;;22.77;46.69;97775.44;5068804;28;20040;-66
2022/06/18 06:43:40;;;;;;;3.95;2.08;;;;;;;22.90;47.33;97766.19;5049426;28;20047;-66
2022/06/18 06:46:11;;;;;;;3.63;1.55;;;;;;;22.96;47.59;97767.63;5048648;28;20095;-65
2022/06/18 06:48:39;;;;;;;3.75;1.83;;;;;;;23.04;47.13;97765.22;5063125;28;20049;-66
2022/06/18 06:51:26;;;;;;;3.22;1.60;;;;;;;23.14;46.92;97762.09;5068957;28;20048;-65
2022/06/18 06:53:52;;;;;;;3.55;1.70;;;;;;;23.24;47.19;97766.50;5067722;28;20040;-66
2022/06/18 06:59:07;;;;;;;4.13;1.70;;;;;;;23.51;45.92;97765.34;5068798;28;20138;-65
2022/06/18 07:01:34;;;;;;;2.72;1.70;;;;;;;23.59;45.19;97763.69;5069239;28;20476;-66
2022/06/18 07:04:03;;;;;;;3.50;1.60;;;;;;;23.76;46.04;97767.56;5068463;28;20036;-66
2022/06/18 07:06:30;;;;;;;4.85;1.73;;;;;;;23.94;45.95;97762.78;5068594;28;20090;-66
2022/06/18 07:08:56;;;;;;;4.75;1.75;;;;;;;24.10;44.13;97760.28;5068597;28;20355;-67
2022/06/18 07:11:23;;;;;;;4.13;1.70;;;;;;;24.19;44.36;97763.03;5065706;28;20040;-66
2022/06/18 07:13:49;;;;;;;4.95;1.60;;;;;;;24.23;44.07;97765.94;5066659;28;20048;-66
2022/06/18 07:16:16;;;;;;;3.17;2.42;;;;;;;24.28;44.26;97762.97;5066207;28;20048;-66
2022/06/18 07:18:43;;;;;;;4.25;1.60;;;;;;;24.36;42.63;97761.31;5067174;28;20059;-66
2022/06/18 07:21:13;;;;;;;2.85;1.55;;;;;;;24.47;42.74;97768.06;5065316;28;20048;-66
2022/06/18 07:23:40;;;;;;;2.90;1.50;;;;;;;24.67;41.21;97771.22;5067122;28;20053;-65
2022/06/18 07:26:07;;;;;;;3.38;1.45;;;;;;;24.76;37.62;97771.97;5066150;28;20481;-67
2022/06/18 07:28:40;;;;;;;5.65;1.80;;;;;;;24.81;36.39;97765.44;5067305;28;20126;-65
2022/06/18 07:31:07;;;;;;;1.92;1.00;;;;;;;24.86;33.11;97764.44;5067707;28;20295;-66
2022/06/18 07:33:35;;;;;;;2.05;1.10;;;;;;;24.93;30.96;97762.75;5068366;28;20122;-65
2022/06/18 07:36:01;;;;;;;2.08;1.10;;;;;;;25.02;30.58;97761.88;5068596;28;20504;-65
2022/06/18 07:38:28;;;;;;;2.30;1.10;;;;;;;25.09;33.74;97756.59;5067830;28;20043;-66
2022/06/18 07:40:55;;;;;;;2.40;1.17;;;;;;;25.12;34.07;97749.56;5068452;28;20037;-65
2022/06/18 07:43:44;;;;;;;3.88;1.20;;;;;;;25.19;35.02;97752.59;5067357;28;20052;-65
2022/06/18 07:46:13;;;;;;;5.68;1.17;;;;;;;25.51;34.95;97752.13;5067968;28;20045;-65
2022/06/18 07:48:41;;;;;;;2.78;1.30;;;;;;;25.67;34.33;97750.34;5067334;28;20404;-66
2022/06/18 07:51:08;;;;;;;2.88;1.30;;;;;;;25.70;34.37;97751.63;5067889;28;20040;-66
2022/06/18 07:53:35;;;;;;;2.30;1.52;;;;;;;25.72;34.66;97752.09;5068005;28;20049;-66
2022/06/18 07:56:03;;;;;;;3.90;1.30;;;;;;;25.83;33.04;97744.13;5066754;28;20044;-65
2022/06/18 07:58:30;;;;;;;1.90;1.20;;;;;;;25.88;32.80;97740.31;5067624;28;20109;-65
2022/06/18 08:00:57;;;;;;;1.92;1.17;;;;;;;25.88;33.99;97743.91;5066874;28;20044;-66
2022/06/18 08:03:25;;;;;;;1.88;1.02;;;;;;;25.96;31.76;97745.78;5067891;28;20056;-65
2022/06/18 08:05:53;;;;;;;2.67;1.38;;;;;;;26.04;32.68;97740.44;5067166;28;20048;-66
2022/06/18 08:08:19;;;;;;;2.30;1.10;;;;;;;26.24;31.67;97747.84;5067881;28;20561;-65
2022/06/18 08:11:11;;;;;;;2.97;1.48;;;;;;;26.32;30.09;97748.91;5067051;28;20500;-66
2022/06/18 08:13:38;;;;;;;3.30;1.10;;;;;;;26.34;30.79;97741.06;5047785;28;20049;-66
2022/06/18 08:16:05;;;;;;;3.05;1.00;;;;;;;26.38;29.58;97741.16;5047341;28;20048;-66
2022/06/18 08:18:32;;;;;;;2.13;1.20;;;;;;;26.39;30.28;97744.75;5066364;28;20476;-66
2022/06/18 08:21:25;;;;;;;3.22;1.45;;;;;;;26.41;31.46;97742.44;5067788;28;20043;-65
2022/06/18 08:23:54;;;;;;;2.38;1.23;;;;;;;26.46;32.93;97739.44;5067773;28;20041;-66
2022/06/18 08:26:21;;;;;;;4.65;1.70;;;;;;;26.58;35.63;97733.88;5067571;28;20048;-66
2022/06/18 08:28:49;;;;;;;4.25;1.70;;;;;;;26.67;36.45;97733.72;5066713;28;20048;-65
2022/06/18 08:31:15;;;;;;;6.78;1.92;;;;;;;26.86;36.40;97730.31;5064295;28;20052;-66
2022/06/18 08:33:42;;;;;;;4.03;1.80;;;;;;;26.97;36.20;97727.88;5059189;28;20045;-66
2022/06/18 08:36:12;;;;;;;4.07;1.90;;;;;;;27.12;34.91;97731.88;5065624;28;20044;-66
2022/06/18 08:38:41;;;;;;;2.33;1.47;;;;;;;27.12;34.56;97723.53;5064747;28;20040;-66
2022/06/18 08:41:17;;;;;;;3.47;1.60;;;;;;;27.13;35.06;97721.56;5058583;28;20037;-65
2022/06/18 08:43:54;;;;;;;3.35;1.80;;;;;;;27.29;34.96;97718.00;5065185;28;20059;-65
2022/06/18 08:46:45;;;;;;;7.05;1.90;;;;;;;27.44;35.16;97716.41;5063149;28;20055;-65
2022/06/18 08:49:30;;;;;;;3.95;1.83;;;;;;;27.52;34.11;97710.72;5067497;28;20749;-65
2022/06/18 08:52:22;;;;;;;4.03;1.58;;;;;;;27.73;33.48;97715.25;5065224;28;20370;-65
2022/06/18 08:54:56;;;;;;;3.78;1.75;;;;;;;27.83;33.86;97713.09;5067407;28;20040;-65
2022/06/18 08:57:51;;;;;;;2.38;1.50;;;;;;;27.86;32.98;97724.28;5066055;28;20047;-65
2022/06/18 09:00:21;;;;;;;2.67;1.33;;;;;;;27.87;32.91;97717.59;5067059;28;20036;-66
2022/06/18 09:03:12;;;;;;;3.45;1.40;;;;;;;27.97;32.09;97710.66;5066410;28;20094;-66
2022/06/18 09:06:08;;;;;;;6.60;1.85;;;;;;;27.97;31.81;97715.44;5066410;28;20491;-65
2022/06/18 09:08:51;;;;;;;3.20;1.58;;;;;;;27.95;31.98;97709.41;5066699;28;20067;-66
2022/06/18 09:11:23;;;;;;;3.38;1.40;;;;;;;27.93;32.04;97704.19;5065920;28;20526;-66
2022/06/18 09:13:57;;;;;;;2.90;1.40;;;;;;;27.96;30.89;97694.34;5066593;28;20098;-65
2022/06/18 09:16:32;;;;;;;1.75;1.40;;;;;;;28.11;30.68;97703.84;5066340;28;20052;-65
2022/06/18 09:19:03;;;;;;;3.85;1.30;;;;;;;28.26;29.95;97703.00;5066646;28;20105;-65
2022/06/18 09:21:46;;;;;;;3.13;1.08;;;;;;;28.38;27.55;97696.50;5066395;28;20036;-66
2022/06/18 09:24:18;;;;;;;2.50;1.40;;;;;;;28.36;27.91;97692.47;5066638;28;20058;-66
2022/06/18 09:26:48;;;;;;;3.13;1.27;;;;;;;28.54;28.51;97692.88;5066268;28;20115;-66
2022/06/18 09:29:24;;;;;;;1.92;0.90;;;;;;;28.53;26.66;97694.84;5066312;28;20045;-65
2022/06/18 09:31:59;;;;;;;2.00;0.95;;;;;;;28.59;27.26;97691.81;5065309;28;20052;-65
2022/06/18 09:34:33;;;;;;;2.22;0.80;;;;;;;28.80;25.77;97697.00;5066748;28;20044;-65
2022/06/18 09:37:10;;;;;;;3.92;1.13;;;;;;;28.83;26.15;97697.06;5070486;28;20045;-65
2022/06/18 09:39:44;;;;;;;2.10;0.80;;;;;;;29.00;25.34;97685.91;5065939;28;20041;-65
2022/06/18 09:42:20;;;;;;;1.33;0.80;;;;;;;29.15;24.54;97701.72;5070581;28;20047;-65
2022/06/18 09:45:08;;;;;;;2.85;0.90;;;;;;;29.17;23.82;97691.03;5050309;28;20049;-65
2022/06/18 09:47:41;;;;;;;5.20;1.10;;;;;;;29.18;24.76;97692.63;5050280;28;20053;-65
2022/06/18 09:50:20;;;;;;;1.85;0.80;;;;;;;29.07;23.27;97695.19;5059471;28;20120;-65
2022/06/18 09:52:51;;;;;;;4.45;1.13;;;;;;;29.02;23.94;97687.16;5070002;28;20044;-65
2022/06/18 09:55:23;;;;;;;3.42;0.98;;;;;;;29.02;24.07;97694.69;5069603;28;20032;-65
2022/06/18 09:57:54;;;;;;;1.20;0.70;;;;;;;29.10;22.97;97690.09;5070127;28;20051;-66
2022/06/18 10:00:25;;;;;;;2.10;0.80;;;;;;;29.09;23.20;97692.06;5069864;28;20101;-65
2022/06/18 10:03:04;;;;;;;1.67;0.90;;;;;;;29.19;23.42;97683.06;5070041;28;20525;-65
2022/06/18 10:08:38;;;;;;;3.47;1.10;;;;;;;29.46;23.66;97680.41;5055596;28;20056;-66
2022/06/18 10:11:09;;;;;;;2.45;0.98;;;;;;;29.37;23.85;97677.03;5069870;28;20118;-65
2022/06/18 10:13:46;;;;;;;3.65;0.80;;;;;;;29.44;22.74;97674.38;5069131;28;20046;-65
2022/06/18 10:16:42;;;;;;;5.28;0.90;;;;;;;29.45;22.25;97669.63;5069798;28;20040;-65
2022/06/18 10:19:21;;;;;;;2.22;1.00;;;;;;;29.64;23.89;97665.16;5070203;28;20047;-65
2022/06/18 10:21:58;;;;;;;2.92;1.17;;;;;;;29.76;23.59;97661.38;5070246;28;20037;-65
2022/06/18 10:24:41;;;;;;;3.63;1.20;;;;;;;29.87;24.07;97656.78;5068825;28;20044;-65
2022/06/18 10:27:35;;;;;;;3.95;1.50;;;;;;;29.98;24.08;97649.38;5069278;28;20048;-66
2022/06/18 10:30:11;;;;;;;5.30;1.80;;;;;;;30.02;25.35;97640.25;5069541;28;20067;-66
2022/06/18 10:32:43;;;;;;;4.60;1.38;;;;;;;30.39;25.61;97644.41;5069508;28;20403;-66
2022/06/18 10:35:25;;;;;;;4.43;1.50;;;;;;;30.26;25.99;97618.69;5055819;28;20036;-65
2022/06/18 10:38:24;;;;;;;4.85;1.58;;;;;;;30.48;25.53;97631.72;5069138;28;20392;-65
2022/06/18 10:40:53;;;;;;;1.83;1.20;;;;;;;30.59;24.61;97623.50;5050819;28;20106;-66
2022/06/18 10:43:29;;;;;;;4.28;1.40;;;;;;;30.71;25.14;97624.44;5049163;28;20041;-65
2022/06/18 10:46:00;;;;;;;3.80;1.70;;;;;;;30.83;24.79;97626.19;5068473;28;20048;-65
2022/06/18 10:48:31;;;;;;;5.45;1.73;;;;;;;30.94;24.61;97627.13;5069051;28;20045;-65
2022/06/18 10:50:59;;;;;;;4.28;1.80;;;;;;;31.08;24.73;97611.69;5068842;28;20106;-65
2022/06/18 10:53:30;;;;;;;6.65;1.73;;;;;;;31.07;25.24;97612.88;5069341;28;20044;-65
2022/06/18 10:56:01;;;;;;;6.68;1.50;;;;;;;30.99;24.79;97612.78;5069031;28;20167;-65
2022/06/18 10:58:29;;;;;;;3.95;1.70;;;;;;;31.10;24.42;97607.31;5069404;28;20048;-65
2022/06/18 11:01:00;;;;;;;5.00;1.60;;;;;;;31.18;25.12;97618.56;5068996;28;20472;-65
2022/06/18 11:03:29;;;;;;;3.45;1.45;;;;;;;31.33;24.20;97600.78;5069343;28;20040;-65
2022/06/18 11:05:57;;;;;;;4.15;1.70;;;;;;;31.46;23.23;97597.66;5067735;28;20044;-65
2022/06/18 11:08:28;;;;;;;5.97;1.60;;;;;;;31.69;24.12;97597.44;5069107;28;20090;-65
2022/06/18 11:11:04;;;;;;;8.40;2.05;;;;;;;31.73;23.19;97603.09;5068280;28;20044;-66
2022/06/18 11:13:37;;;;;;;6.40;1.80;;;;;;;31.52;22.98;97594.16;5069221;28;20052;-65
2022/06/18 11:16:21;;;;;;;4.15;1.50;;;;;;;31.50;24.27;97593.72;5068025;28;20047;-65
2022/06/18 11:18:56;;;;;;;6.07;1.50;;;;;;;31.70;24.53;97592.66;5068369;28;20049;-66
2022/06/18 11:21:44;;;;;;;7.18;1.70;;;;;;;31.95;23.57;97592.06;5067703;28;20048;-66
2022/06/18 11:24:11;;;;;;;6.20;1.83;;;;;;;32.15;23.04;97590.59;5068687;28;20048;-65
2022/06/18 11:26:41;;;;;;;5.97;1.48;;;;;;;32.33;24.03;97589.88;5067956;28;20049;-66
2022/06/18 11:29:19;;;;;;;7.30;2.25;;;;;;;32.42;23.38;97583.88;5067940;28;20049;-66
2022/06/18 11:31:51;;;;;;;5.95;1.92;;;;;;;32.48;23.10;97585.16;5067926;28;20048;-66
2022/06/18 11:34:24;;;;;;;8.45;2.40;;;;;;;32.73;22.02;97581.66;5067462;28;20708;-66
2022/06/18 11:36:56;;;;;;;9.85;1.77;;;;;;;32.49;22.99;97581.16;5068738;28;20049;-67
2022/06/18 11:39:36;;;;;;;6.60;2.10;;;;;;;32.77;21.74;97588.06;5067335;28;20057;-66
2022/06/18 11:42:15;;;;;;;7.90;1.55;;;;;;;33.07;22.29;97581.34;5068449;28;20032;-67
2022/06/18 11:44:48;;;;;;;5.78;1.80;;;;;;;32.52;21.18;97571.97;5067693;28;20555;-66
2022/06/18 11:47:25;;;;;;;11.52;2.50;;;;;;;32.48;22.16;97561.94;5068021;28;20044;-66
2022/06/18 11:49:59;;;;;;;8.70;1.60;;;;;;;32.93;21.74;97561.66;5068090;28;20041;-66
2022/06/18 11:52:44;;;;;;;7.90;1.80;;;;;;;32.85;21.38;97558.03;5068151;28;20056;-66
2022/06/18 11:55:23;;;;;;;15.57;2.22;;;;;;;33.26;20.59;97554.09;5048050;28;20045;-66
2022/06/18 11:57:55;;;;;;;11.35;1.98;;;;;;;33.40;20.01;97552.50;5047405;28;20040;-66
2022/06/18 12:00:45;;;;;;;12.80;2.63;;;;;;;33.31;20.17;97550.88;5066411;28;20051;-66
2022/06/18 12:03:25;;;;;;;10.45;1.98;;;;;;;33.22;19.71;97548.50;5067546;28;20082;-66
2022/06/18 12:06:07;;;;;;;8.43;2.28;;;;;;;33.23;20.64;97538.06;5067444;28;20094;-67
2022/06/18 12:08:34;;;;;;;7.78;1.90;;;;;;;33.30;21.53;97542.88;5066285;28;20048;-67
2022/06/18 12:11:20;;;;;;;9.07;1.80;;;;;;;33.82;20.73;97533.22;5063240;28;20042;-67